sensor_id;sensor_type;location;lat;lon;timestamp;P1;durP1;ratioP1;P2;durP2;ratioP2
40170;SDS011;37650;52.790;18.268;2022-10-17T00:02:00;19.60;;;17.50;;
40170;SDS011;37650;52.790;18.268;2022-10-17T00:10:14;15.20;;;13.70;;
40170;SDS011;37650;52.790;18.268;2022-10-17T00:13:35;17.20;;;15.60;;
40170;SDS011;37650;52.790;18.268;2022-10-17T00:16:56;18.00;;;16.20;;
40170;SDS011;37650;52.790;18.268;2022-10-17T00:20:16;18.60;;;16.80;;
40170;SDS011;37650;52.790;18.268;2022-10-17T00:23:37;16.20;;;14.60;;
40170;SDS011;37650;52.790;18.268;2022-10-17T00:26:57;17.00;;;15.20;;
40170;SDS011;37650;52.790;18.268;2022-10-17T00:30:18;18.70;;;15.60;;
40170;SDS011;37650;52.790;18.268;2022-10-17T00:33:39;17.20;;;14.70;;
40170;SDS011;37650;52.790;18.268;2022-10-17T00:36:59;16.50;;;14.90;;
40170;SDS011;37650;52.790;18.268;2022-10-17T00:40:19;18.50;;;16.30;;
40170;SDS011;37650;52.790;18.268;2022-10-17T00:47:12;19.20;;;15.80;;
40170;SDS011;37650;52.790;18.268;2022-10-17T00:50:40;18.30;;;15.50;;
40170;SDS011;37650;52.790;18.268;2022-10-17T00:54:03;17.30;;;15.50;;
40170;SDS011;37650;52.790;18.268;2022-10-17T00:57:24;18.90;;;17.00;;
40170;SDS011;37650;52.790;18.268;2022-10-17T01:00:49;19.30;;;17.30;;
40170;SDS011;37650;52.790;18.268;2022-10-17T01:04:10;21.00;;;18.10;;
40170;SDS011;37650;52.790;18.268;2022-10-17T01:07:32;21.50;;;19.20;;
40170;SDS011;37650;52.790;18.268;2022-10-17T01:11:04;22.50;;;19.10;;
40170;SDS011;37650;52.790;18.268;2022-10-17T01:14:46;20.20;;;18.00;;
40170;SDS011;37650;52.790;18.268;2022-10-17T01:21:47;19.10;;;17.00;;
40170;SDS011;37650;52.790;18.268;2022-10-17T01:25:21;21.00;;;18.40;;
40170;SDS011;37650;52.790;18.268;2022-10-17T01:32:48;29.10;;;19.20;;
40170;SDS011;37650;52.790;18.268;2022-10-17T01:40:19;25.70;;;20.20;;
40170;SDS011;37650;52.790;18.268;2022-10-17T01:44:31;23.10;;;17.30;;
40170;SDS011;37650;52.790;18.268;2022-10-17T01:47:34;27.60;;;16.90;;
40170;SDS011;37650;52.790;18.268;2022-10-17T01:50:59;26.30;;;18.90;;
40170;SDS011;37650;52.790;18.268;2022-10-17T01:54:36;33.90;;;20.80;;
40170;SDS011;37650;52.790;18.268;2022-10-17T01:58:21;25.50;;;18.00;;
40170;SDS011;37650;52.790;18.268;2022-10-17T02:02:05;26.60;;;18.30;;
40170;SDS011;37650;52.790;18.268;2022-10-17T02:08:52;22.10;;;17.30;;
40170;SDS011;37650;52.790;18.268;2022-10-17T02:16:17;22.70;;;18.70;;
40170;SDS011;37650;52.790;18.268;2022-10-17T02:20:05;32.00;;;21.60;;
40170;SDS011;37650;52.790;18.268;2022-10-17T02:23:49;25.40;;;18.60;;
40170;SDS011;37650;52.790;18.268;2022-10-17T02:27:13;23.60;;;18.80;;
40170;SDS011;37650;52.790;18.268;2022-10-17T02:31:01;22.70;;;17.10;;
40170;SDS011;37650;52.790;18.268;2022-10-17T02:34:24;21.90;;;17.90;;
40170;SDS011;37650;52.790;18.268;2022-10-17T02:37:50;24.70;;;18.30;;
40170;SDS011;37650;52.790;18.268;2022-10-17T02:41:14;26.60;;;18.80;;
40170;SDS011;37650;52.790;18.268;2022-10-17T02:44:37;22.50;;;17.30;;
40170;SDS011;37650;52.790;18.268;2022-10-17T02:48:22;26.70;;;19.20;;
40170;SDS011;37650;52.790;18.268;2022-10-17T02:51:53;21.70;;;18.00;;
40170;SDS011;37650;52.790;18.268;2022-10-17T02:55:35;23.90;;;17.20;;
40170;SDS011;37650;52.790;18.268;2022-10-17T02:59:00;21.00;;;17.00;;
40170;SDS011;37650;52.790;18.268;2022-10-17T03:02:24;24.00;;;18.50;;
40170;SDS011;37650;52.790;18.268;2022-10-17T03:05:44;25.80;;;19.00;;
40170;SDS011;37650;52.790;18.268;2022-10-17T03:09:04;21.30;;;16.90;;
40170;SDS011;37650;52.790;18.268;2022-10-17T03:12:25;26.10;;;18.30;;
40170;SDS011;37650;52.790;18.268;2022-10-17T03:15:46;19.40;;;15.20;;
40170;SDS011;37650;52.790;18.268;2022-10-17T03:19:06;21.00;;;15.90;;
40170;SDS011;37650;52.790;18.268;2022-10-17T03:22:27;17.60;;;15.80;;
40170;SDS011;37650;52.790;18.268;2022-10-17T03:25:48;23.70;;;18.50;;
40170;SDS011;37650;52.790;18.268;2022-10-17T03:29:09;24.10;;;20.40;;
40170;SDS011;37650;52.790;18.268;2022-10-17T03:32:31;25.10;;;21.60;;
40170;SDS011;37650;52.790;18.268;2022-10-17T03:35:52;24.70;;;19.30;;
40170;SDS011;37650;52.790;18.268;2022-10-17T03:39:13;24.30;;;18.40;;
40170;SDS011;37650;52.790;18.268;2022-10-17T03:42:34;23.40;;;18.60;;
40170;SDS011;37650;52.790;18.268;2022-10-17T03:45:55;23.20;;;18.10;;
40170;SDS011;37650;52.790;18.268;2022-10-17T03:49:17;21.70;;;18.70;;
40170;SDS011;37650;52.790;18.268;2022-10-17T03:52:38;26.00;;;21.50;;
40170;SDS011;37650;52.790;18.268;2022-10-17T03:56:12;25.90;;;22.90;;
40170;SDS011;37650;52.790;18.268;2022-10-17T03:59:35;21.30;;;17.00;;
40170;SDS011;37650;52.790;18.268;2022-10-17T04:02:58;20.70;;;18.50;;
40170;SDS011;37650;52.790;18.268;2022-10-17T04:06:19;25.70;;;19.30;;
40170;SDS011;37650;52.790;18.268;2022-10-17T04:09:41;22.10;;;17.40;;
40170;SDS011;37650;52.790;18.268;2022-10-17T04:13:07;21.60;;;18.30;;
40170;SDS011;37650;52.790;18.268;2022-10-17T04:16:28;20.30;;;17.30;;
40170;SDS011;37650;52.790;18.268;2022-10-17T04:19:53;22.50;;;19.60;;
40170;SDS011;37650;52.790;18.268;2022-10-17T04:26:37;17.30;;;15.40;;
40170;SDS011;37650;52.790;18.268;2022-10-17T04:29:57;19.60;;;15.60;;
40170;SDS011;37650;52.790;18.268;2022-10-17T04:33:18;22.70;;;16.40;;
40170;SDS011;37650;52.790;18.268;2022-10-17T04:36:38;16.90;;;14.70;;
40170;SDS011;37650;52.790;18.268;2022-10-17T04:40:00;16.90;;;15.10;;
40170;SDS011;37650;52.790;18.268;2022-10-17T04:43:23;20.40;;;18.10;;
40170;SDS011;37650;52.790;18.268;2022-10-17T04:46:45;21.00;;;17.30;;
40170;SDS011;37650;52.790;18.268;2022-10-17T04:50:06;13.30;;;11.20;;
40170;SDS011;37650;52.790;18.268;2022-10-17T04:53:28;20.20;;;17.30;;
40170;SDS011;37650;52.790;18.268;2022-10-17T04:56:51;23.20;;;18.40;;
40170;SDS011;37650;52.790;18.268;2022-10-17T05:00:12;19.50;;;17.20;;
40170;SDS011;37650;52.790;18.268;2022-10-17T05:03:45;27.30;;;21.60;;
40170;SDS011;37650;52.790;18.268;2022-10-17T05:07:06;25.30;;;20.50;;
40170;SDS011;37650;52.790;18.268;2022-10-17T05:10:49;19.90;;;17.90;;
40170;SDS011;37650;52.790;18.268;2022-10-17T05:14:09;21.60;;;19.00;;
40170;SDS011;37650;52.790;18.268;2022-10-17T05:17:29;21.80;;;18.50;;
40170;SDS011;37650;52.790;18.268;2022-10-17T05:20:49;24.50;;;20.90;;
40170;SDS011;37650;52.790;18.268;2022-10-17T05:24:12;29.10;;;22.20;;
40170;SDS011;37650;52.790;18.268;2022-10-17T05:27:34;23.40;;;20.70;;
40170;SDS011;37650;52.790;18.268;2022-10-17T05:30:54;24.10;;;19.20;;
40170;SDS011;37650;52.790;18.268;2022-10-17T05:34:15;23.00;;;18.00;;
40170;SDS011;37650;52.790;18.268;2022-10-17T05:37:35;21.00;;;16.80;;
40170;SDS011;37650;52.790;18.268;2022-10-17T05:40:59;28.70;;;23.70;;
40170;SDS011;37650;52.790;18.268;2022-10-17T05:44:21;27.90;;;24.90;;
40170;SDS011;37650;52.790;18.268;2022-10-17T05:47:45;29.10;;;22.60;;
40170;SDS011;37650;52.790;18.268;2022-10-17T05:51:07;29.60;;;22.90;;
40170;SDS011;37650;52.790;18.268;2022-10-17T05:54:28;30.10;;;22.10;;
40170;SDS011;37650;52.790;18.268;2022-10-17T05:57:48;26.60;;;20.00;;
40170;SDS011;37650;52.790;18.268;2022-10-17T06:01:11;21.40;;;18.80;;
40170;SDS011;37650;52.790;18.268;2022-10-17T06:04:32;23.10;;;19.90;;
40170;SDS011;37650;52.790;18.268;2022-10-17T06:07:55;32.30;;;26.30;;
40170;SDS011;37650;52.790;18.268;2022-10-17T06:11:16;29.40;;;23.70;;
40170;SDS011;37650;52.790;18.268;2022-10-17T06:14:36;29.30;;;23.80;;
40170;SDS011;37650;52.790;18.268;2022-10-17T06:17:58;24.80;;;21.60;;
40170;SDS011;37650;52.790;18.268;2022-10-17T06:21:23;29.80;;;21.80;;
40170;SDS011;37650;52.790;18.268;2022-10-17T06:24:47;23.20;;;16.40;;
40170;SDS011;37650;52.790;18.268;2022-10-17T06:28:08;19.90;;;17.80;;
40170;SDS011;37650;52.790;18.268;2022-10-17T06:31:30;20.80;;;18.40;;
40170;SDS011;37650;52.790;18.268;2022-10-17T06:34:50;21.40;;;19.00;;
40170;SDS011;37650;52.790;18.268;2022-10-17T06:38:11;20.80;;;18.50;;
40170;SDS011;37650;52.790;18.268;2022-10-17T06:41:31;23.10;;;19.50;;
40170;SDS011;37650;52.790;18.268;2022-10-17T06:44:57;26.50;;;21.10;;
40170;SDS011;37650;52.790;18.268;2022-10-17T06:48:34;21.60;;;19.30;;
40170;SDS011;37650;52.790;18.268;2022-10-17T06:52:16;25.30;;;19.40;;
40170;SDS011;37650;52.790;18.268;2022-10-17T06:55:50;19.40;;;16.90;;
40170;SDS011;37650;52.790;18.268;2022-10-17T06:59:31;27.40;;;20.90;;
40170;SDS011;37650;52.790;18.268;2022-10-17T07:02:57;22.80;;;20.30;;
40170;SDS011;37650;52.790;18.268;2022-10-17T07:06:17;22.40;;;20.10;;
40170;SDS011;37650;52.790;18.268;2022-10-17T07:09:38;22.50;;;19.70;;
40170;SDS011;37650;52.790;18.268;2022-10-17T07:12:59;26.10;;;23.00;;
40170;SDS011;37650;52.790;18.268;2022-10-17T07:16:19;25.80;;;23.20;;
40170;SDS011;37650;52.790;18.268;2022-10-17T07:19:44;32.80;;;26.00;;
40170;SDS011;37650;52.790;18.268;2022-10-17T07:23:05;24.90;;;22.30;;
40170;SDS011;37650;52.790;18.268;2022-10-17T07:26:25;28.50;;;24.80;;
40170;SDS011;37650;52.790;18.268;2022-10-17T07:29:46;28.10;;;25.30;;
40170;SDS011;37650;52.790;18.268;2022-10-17T07:33:32;26.90;;;23.10;;
40170;SDS011;37650;52.790;18.268;2022-10-17T07:36:54;32.40;;;26.20;;
40170;SDS011;37650;52.790;18.268;2022-10-17T07:40:14;26.40;;;23.70;;
40170;SDS011;37650;52.790;18.268;2022-10-17T07:43:36;26.40;;;23.50;;
40170;SDS011;37650;52.790;18.268;2022-10-17T07:46:56;28.80;;;25.40;;
40170;SDS011;37650;52.790;18.268;2022-10-17T07:50:17;30.70;;;26.80;;
40170;SDS011;37650;52.790;18.268;2022-10-17T07:53:38;28.00;;;25.30;;
40170;SDS011;37650;52.790;18.268;2022-10-17T07:56:59;28.10;;;25.20;;
40170;SDS011;37650;52.790;18.268;2022-10-17T08:00:19;27.10;;;24.20;;
40170;SDS011;37650;52.790;18.268;2022-10-17T08:03:40;36.80;;;28.10;;
40170;SDS011;37650;52.790;18.268;2022-10-17T08:07:02;32.20;;;27.70;;
40170;SDS011;37650;52.790;18.268;2022-10-17T08:10:23;29.40;;;26.40;;
40170;SDS011;37650;52.790;18.268;2022-10-17T08:13:48;28.80;;;25.60;;
40170;SDS011;37650;52.790;18.268;2022-10-17T08:17:09;27.80;;;24.90;;
40170;SDS011;37650;52.790;18.268;2022-10-17T08:20:29;29.20;;;26.30;;
40170;SDS011;37650;52.790;18.268;2022-10-17T08:23:50;31.80;;;28.40;;
40170;SDS011;37650;52.790;18.268;2022-10-17T08:27:09;32.90;;;28.60;;
40170;SDS011;37650;52.790;18.268;2022-10-17T08:30:32;32.40;;;29.20;;
40170;SDS011;37650;52.790;18.268;2022-10-17T08:33:52;31.90;;;28.60;;
40170;SDS011;37650;52.790;18.268;2022-10-17T08:37:13;27.10;;;24.40;;
40170;SDS011;37650;52.790;18.268;2022-10-17T08:40:34;26.90;;;23.20;;
40170;SDS011;37650;52.790;18.268;2022-10-17T08:47:43;28.20;;;25.20;;
40170;SDS011;37650;52.790;18.268;2022-10-17T08:51:09;29.30;;;25.80;;
40170;SDS011;37650;52.790;18.268;2022-10-17T08:54:39;31.60;;;28.60;;
40170;SDS011;37650;52.790;18.268;2022-10-17T08:58:02;32.00;;;29.00;;
40170;SDS011;37650;52.790;18.268;2022-10-17T09:26:50;30.00;;;27.40;;
40170;SDS011;37650;52.790;18.268;2022-10-17T09:33:49;26.90;;;23.00;;
40170;SDS011;37650;52.790;18.268;2022-10-17T09:37:14;30.00;;;27.40;;
40170;SDS011;37650;52.790;18.268;2022-10-17T09:40:35;29.20;;;26.40;;
40170;SDS011;37650;52.790;18.268;2022-10-17T09:43:56;30.00;;;25.70;;
40170;SDS011;37650;52.790;18.268;2022-10-17T09:50:57;25.80;;;23.40;;
40170;SDS011;37650;52.790;18.268;2022-10-17T09:54:24;23.10;;;20.90;;
40170;SDS011;37650;52.790;18.268;2022-10-17T09:57:57;25.60;;;23.30;;
40170;SDS011;37650;52.790;18.268;2022-10-17T10:05:14;23.30;;;21.20;;
40170;SDS011;37650;52.790;18.268;2022-10-17T10:08:46;20.10;;;18.30;;
40170;SDS011;37650;52.790;18.268;2022-10-17T10:12:15;20.60;;;18.80;;
40170;SDS011;37650;52.790;18.268;2022-10-17T10:15:47;19.70;;;17.90;;
40170;SDS011;37650;52.790;18.268;2022-10-17T10:19:30;23.30;;;21.30;;
40170;SDS011;37650;52.790;18.268;2022-10-17T10:23:12;21.20;;;19.50;;
40170;SDS011;37650;52.790;18.268;2022-10-17T10:26:42;23.20;;;21.10;;
40170;SDS011;37650;52.790;18.268;2022-10-17T10:30:05;22.90;;;20.80;;
40170;SDS011;37650;52.790;18.268;2022-10-17T10:33:27;24.00;;;21.70;;
40170;SDS011;37650;52.790;18.268;2022-10-17T10:36:54;24.20;;;22.30;;
40170;SDS011;37650;52.790;18.268;2022-10-17T10:41:17;23.30;;;21.20;;
40170;SDS011;37650;52.790;18.268;2022-10-17T10:44:11;24.00;;;21.70;;
40170;SDS011;37650;52.790;18.268;2022-10-17T10:47:34;21.90;;;20.00;;
40170;SDS011;37650;52.790;18.268;2022-10-17T10:51:04;26.50;;;24.20;;
40170;SDS011;37650;52.790;18.268;2022-10-17T10:54:32;23.20;;;21.20;;
40170;SDS011;37650;52.790;18.268;2022-10-17T10:58:00;25.20;;;23.10;;
40170;SDS011;37650;52.790;18.268;2022-10-17T11:16:32;25.10;;;22.80;;
40170;SDS011;37650;52.790;18.268;2022-10-17T11:20:09;21.90;;;19.90;;
40170;SDS011;37650;52.790;18.268;2022-10-17T11:23:39;18.70;;;17.10;;
40170;SDS011;37650;52.790;18.268;2022-10-17T11:27:03;19.40;;;17.70;;
40170;SDS011;37650;52.790;18.268;2022-10-17T11:30:26;17.80;;;16.00;;
40170;SDS011;37650;52.790;18.268;2022-10-17T11:33:54;24.20;;;21.80;;
40170;SDS011;37650;52.790;18.268;2022-10-17T11:37:22;20.60;;;18.80;;
40170;SDS011;37650;52.790;18.268;2022-10-17T11:40:51;19.90;;;18.00;;
40170;SDS011;37650;52.790;18.268;2022-10-17T11:44:33;16.90;;;15.40;;
40170;SDS011;37650;52.790;18.268;2022-10-17T11:55:28;14.40;;;13.00;;
40170;SDS011;37650;52.790;18.268;2022-10-17T11:59:07;16.80;;;15.20;;
40170;SDS011;37650;52.790;18.268;2022-10-17T12:09:48;13.20;;;12.00;;
40170;SDS011;37650;52.790;18.268;2022-10-17T12:13:49;14.40;;;12.50;;
40170;SDS011;37650;52.790;18.268;2022-10-17T12:20:56;37.00;;;33.70;;
40170;SDS011;37650;52.790;18.268;2022-10-17T12:24:37;24.40;;;22.20;;
40170;SDS011;37650;52.790;18.268;2022-10-17T12:31:30;17.10;;;15.30;;
40170;SDS011;37650;52.790;18.268;2022-10-17T12:34:52;16.50;;;14.20;;
40170;SDS011;37650;52.790;18.268;2022-10-17T12:38:17;16.50;;;14.50;;
40170;SDS011;37650;52.790;18.268;2022-10-17T12:45:23;15.90;;;14.30;;
40170;SDS011;37650;52.790;18.268;2022-10-17T12:49:20;26.90;;;16.40;;
40170;SDS011;37650;52.790;18.268;2022-10-17T12:53:01;13.10;;;12.00;;
40170;SDS011;37650;52.790;18.268;2022-10-17T12:56:34;15.60;;;14.10;;
40170;SDS011;37650;52.790;18.268;2022-10-17T13:00:03;15.00;;;13.70;;
40170;SDS011;37650;52.790;18.268;2022-10-17T13:03:45;14.90;;;13.40;;
40170;SDS011;37650;52.790;18.268;2022-10-17T13:07:12;13.80;;;12.60;;
40170;SDS011;37650;52.790;18.268;2022-10-17T13:10:38;16.40;;;14.70;;
40170;SDS011;37650;52.790;18.268;2022-10-17T13:14:00;15.20;;;13.60;;
40170;SDS011;37650;52.790;18.268;2022-10-17T13:17:28;12.90;;;11.50;;
40170;SDS011;37650;52.790;18.268;2022-10-17T13:20:56;15.80;;;14.30;;
40170;SDS011;37650;52.790;18.268;2022-10-17T13:24:30;13.40;;;12.00;;
40170;SDS011;37650;52.790;18.268;2022-10-17T13:28:02;14.90;;;13.40;;
40170;SDS011;37650;52.790;18.268;2022-10-17T13:31:28;14.10;;;12.80;;
40170;SDS011;37650;52.790;18.268;2022-10-17T13:35:12;13.60;;;12.30;;
40170;SDS011;37650;52.790;18.268;2022-10-17T13:38:34;14.00;;;12.70;;
40170;SDS011;37650;52.790;18.268;2022-10-17T13:41:56;15.70;;;13.70;;
40170;SDS011;37650;52.790;18.268;2022-10-17T13:48:52;17.70;;;13.00;;
40170;SDS011;37650;52.790;18.268;2022-10-17T13:52:19;15.40;;;13.70;;
40170;SDS011;37650;52.790;18.268;2022-10-17T13:55:55;13.50;;;12.20;;
40170;SDS011;37650;52.790;18.268;2022-10-17T13:59:21;14.20;;;12.80;;
40170;SDS011;37650;52.790;18.268;2022-10-17T14:02:43;13.60;;;12.10;;
40170;SDS011;37650;52.790;18.268;2022-10-17T14:06:19;16.00;;;14.00;;
40170;SDS011;37650;52.790;18.268;2022-10-17T14:09:40;12.90;;;11.60;;
40170;SDS011;37650;52.790;18.268;2022-10-17T14:13:05;13.50;;;12.20;;
40170;SDS011;37650;52.790;18.268;2022-10-17T14:16:37;16.80;;;14.80;;
40170;SDS011;37650;52.790;18.268;2022-10-17T14:20:00;17.10;;;14.60;;
40170;SDS011;37650;52.790;18.268;2022-10-17T14:23:27;18.40;;;15.70;;
40170;SDS011;37650;52.790;18.268;2022-10-17T14:26:56;17.20;;;15.50;;
40170;SDS011;37650;52.790;18.268;2022-10-17T14:33:45;17.80;;;16.00;;
40170;SDS011;37650;52.790;18.268;2022-10-17T14:37:11;18.00;;;16.10;;
40170;SDS011;37650;52.790;18.268;2022-10-17T14:47:48;17.60;;;15.30;;
40170;SDS011;37650;52.790;18.268;2022-10-17T14:51:13;17.70;;;15.60;;
40170;SDS011;37650;52.790;18.268;2022-10-17T14:54:36;18.20;;;16.30;;
40170;SDS011;37650;52.790;18.268;2022-10-17T14:57:56;19.90;;;17.20;;
40170;SDS011;37650;52.790;18.268;2022-10-17T15:01:17;18.80;;;15.30;;
40170;SDS011;37650;52.790;18.268;2022-10-17T15:04:38;20.40;;;15.20;;
40170;SDS011;37650;52.790;18.268;2022-10-17T15:07:59;23.40;;;15.50;;
40170;SDS011;37650;52.790;18.268;2022-10-17T15:11:19;21.80;;;15.60;;
40170;SDS011;37650;52.790;18.268;2022-10-17T15:14:40;24.50;;;17.70;;
40170;SDS011;37650;52.790;18.268;2022-10-17T15:18:02;20.50;;;17.50;;
40170;SDS011;37650;52.790;18.268;2022-10-17T15:21:23;19.30;;;17.30;;
40170;SDS011;37650;52.790;18.268;2022-10-17T15:24:44;20.60;;;17.50;;
40170;SDS011;37650;52.790;18.268;2022-10-17T15:28:05;25.10;;;19.80;;
40170;SDS011;37650;52.790;18.268;2022-10-17T15:31:25;24.60;;;19.10;;
40170;SDS011;37650;52.790;18.268;2022-10-17T15:34:47;20.30;;;16.90;;
40170;SDS011;37650;52.790;18.268;2022-10-17T15:38:07;19.40;;;17.40;;
40170;SDS011;37650;52.790;18.268;2022-10-17T15:41:29;23.40;;;17.60;;
40170;SDS011;37650;52.790;18.268;2022-10-17T15:44:50;20.40;;;18.30;;
40170;SDS011;37650;52.790;18.268;2022-10-17T15:48:14;25.00;;;20.00;;
40170;SDS011;37650;52.790;18.268;2022-10-17T15:51:39;23.00;;;19.00;;
40170;SDS011;37650;52.790;18.268;2022-10-17T15:55:00;25.30;;;21.20;;
40170;SDS011;37650;52.790;18.268;2022-10-17T15:58:20;26.00;;;20.00;;
40170;SDS011;37650;52.790;18.268;2022-10-17T16:01:40;21.50;;;19.00;;
40170;SDS011;37650;52.790;18.268;2022-10-17T16:05:01;25.40;;;17.00;;
40170;SDS011;37650;52.790;18.268;2022-10-17T16:08:25;26.80;;;22.90;;
40170;SDS011;37650;52.790;18.268;2022-10-17T16:11:45;36.80;;;29.00;;
40170;SDS011;37650;52.790;18.268;2022-10-17T16:15:16;40.50;;;35.90;;
40170;SDS011;37650;52.790;18.268;2022-10-17T16:18:39;31.70;;;27.20;;
40170;SDS011;37650;52.790;18.268;2022-10-17T16:21:59;29.10;;;26.10;;
40170;SDS011;37650;52.790;18.268;2022-10-17T16:25:25;33.70;;;30.20;;
40170;SDS011;37650;52.790;18.268;2022-10-17T16:28:47;35.60;;;31.10;;
40170;SDS011;37650;52.790;18.268;2022-10-17T16:32:08;41.10;;;36.80;;
40170;SDS011;37650;52.790;18.268;2022-10-17T16:35:29;40.10;;;35.90;;
40170;SDS011;37650;52.790;18.268;2022-10-17T16:38:50;35.70;;;32.10;;
40170;SDS011;37650;52.790;18.268;2022-10-17T16:42:13;34.10;;;27.60;;
40170;SDS011;37650;52.790;18.268;2022-10-17T16:45:33;32.70;;;29.30;;
40170;SDS011;37650;52.790;18.268;2022-10-17T16:48:54;34.20;;;30.50;;
40170;SDS011;37650;52.790;18.268;2022-10-17T16:52:16;34.70;;;29.60;;
40170;SDS011;37650;52.790;18.268;2022-10-17T16:55:35;31.60;;;28.50;;
40170;SDS011;37650;52.790;18.268;2022-10-17T16:58:55;31.40;;;24.50;;
40170;SDS011;37650;52.790;18.268;2022-10-17T17:02:16;29.90;;;25.10;;
40170;SDS011;37650;52.790;18.268;2022-10-17T17:05:37;29.40;;;25.00;;
40170;SDS011;37650;52.790;18.268;2022-10-17T17:13:08;28.50;;;25.30;;
40170;SDS011;37650;52.790;18.268;2022-10-17T17:16:29;29.90;;;23.80;;
40170;SDS011;37650;52.790;18.268;2022-10-17T17:19:51;31.60;;;23.60;;
40170;SDS011;37650;52.790;18.268;2022-10-17T17:23:10;35.80;;;30.80;;
40170;SDS011;37650;52.790;18.268;2022-10-17T17:26:34;35.90;;;29.00;;
40170;SDS011;37650;52.790;18.268;2022-10-17T17:29:57;32.90;;;29.30;;
40170;SDS011;37650;52.790;18.268;2022-10-17T17:33:18;30.90;;;27.60;;
40170;SDS011;37650;52.790;18.268;2022-10-17T17:36:39;33.90;;;30.10;;
40170;SDS011;37650;52.790;18.268;2022-10-17T17:40:00;35.60;;;29.70;;
40170;SDS011;37650;52.790;18.268;2022-10-17T17:43:21;32.00;;;27.10;;
40170;SDS011;37650;52.790;18.268;2022-10-17T17:46:43;37.70;;;31.80;;
40170;SDS011;37650;52.790;18.268;2022-10-17T17:50:04;32.50;;;29.10;;
40170;SDS011;37650;52.790;18.268;2022-10-17T17:53:25;34.90;;;29.10;;
40170;SDS011;37650;52.790;18.268;2022-10-17T17:56:46;33.30;;;29.70;;
40170;SDS011;37650;52.790;18.268;2022-10-17T18:00:08;34.20;;;30.50;;
40170;SDS011;37650;52.790;18.268;2022-10-17T18:03:29;34.10;;;29.60;;
40170;SDS011;37650;52.790;18.268;2022-10-17T18:06:50;36.00;;;29.80;;
40170;SDS011;37650;52.790;18.268;2022-10-17T18:10:10;32.10;;;26.50;;
40170;SDS011;37650;52.790;18.268;2022-10-17T18:13:32;39.20;;;29.60;;
40170;SDS011;37650;52.790;18.268;2022-10-17T18:16:53;43.30;;;31.40;;
40170;SDS011;37650;52.790;18.268;2022-10-17T18:20:14;30.00;;;25.40;;
40170;SDS011;37650;52.790;18.268;2022-10-17T18:23:36;39.70;;;31.90;;
40170;SDS011;37650;52.790;18.268;2022-10-17T18:26:59;33.90;;;29.80;;
40170;SDS011;37650;52.790;18.268;2022-10-17T18:30:20;31.00;;;24.90;;
40170;SDS011;37650;52.790;18.268;2022-10-17T18:33:41;38.60;;;29.20;;
40170;SDS011;37650;52.790;18.268;2022-10-17T18:37:03;38.30;;;30.10;;
40170;SDS011;37650;52.790;18.268;2022-10-17T18:40:24;35.50;;;30.10;;
40170;SDS011;37650;52.790;18.268;2022-10-17T18:43:48;35.50;;;31.10;;
40170;SDS011;37650;52.790;18.268;2022-10-17T18:47:10;38.00;;;30.60;;
40170;SDS011;37650;52.790;18.268;2022-10-17T18:50:31;31.00;;;27.50;;
40170;SDS011;37650;52.790;18.268;2022-10-17T18:53:54;36.20;;;28.90;;
40170;SDS011;37650;52.790;18.268;2022-10-17T18:57:17;31.10;;;27.60;;
40170;SDS011;37650;52.790;18.268;2022-10-17T19:00:38;27.90;;;24.80;;
40170;SDS011;37650;52.790;18.268;2022-10-17T19:03:58;32.20;;;28.00;;
40170;SDS011;37650;52.790;18.268;2022-10-17T19:07:22;30.60;;;26.70;;
40170;SDS011;37650;52.790;18.268;2022-10-17T19:10:42;32.60;;;27.60;;
40170;SDS011;37650;52.790;18.268;2022-10-17T19:14:06;37.90;;;28.10;;
40170;SDS011;37650;52.790;18.268;2022-10-17T19:17:34;30.60;;;24.40;;
40170;SDS011;37650;52.790;18.268;2022-10-17T19:20:59;29.10;;;23.90;;
40170;SDS011;37650;52.790;18.268;2022-10-17T19:24:28;31.20;;;25.80;;
40170;SDS011;37650;52.790;18.268;2022-10-17T19:27:49;28.10;;;23.30;;
40170;SDS011;37650;52.790;18.268;2022-10-17T19:31:09;33.00;;;25.90;;
40170;SDS011;37650;52.790;18.268;2022-10-17T19:34:30;39.20;;;25.00;;
40170;SDS011;37650;52.790;18.268;2022-10-17T19:37:51;32.80;;;24.70;;
40170;SDS011;37650;52.790;18.268;2022-10-17T19:41:12;29.50;;;24.90;;
40170;SDS011;37650;52.790;18.268;2022-10-17T19:44:34;33.00;;;19.70;;
40170;SDS011;37650;52.790;18.268;2022-10-17T19:47:55;32.90;;;23.90;;
40170;SDS011;37650;52.790;18.268;2022-10-17T19:51:17;31.40;;;22.90;;
40170;SDS011;37650;52.790;18.268;2022-10-17T19:54:42;30.60;;;23.40;;
40170;SDS011;37650;52.790;18.268;2022-10-17T19:58:03;37.90;;;26.10;;
40170;SDS011;37650;52.790;18.268;2022-10-17T20:01:25;36.80;;;25.20;;
40170;SDS011;37650;52.790;18.268;2022-10-17T20:04:46;46.20;;;27.50;;
40170;SDS011;37650;52.790;18.268;2022-10-17T20:08:07;46.70;;;26.00;;
40170;SDS011;37650;52.790;18.268;2022-10-17T20:11:28;32.80;;;25.70;;
40170;SDS011;37650;52.790;18.268;2022-10-17T20:14:49;35.70;;;25.40;;
40170;SDS011;37650;52.790;18.268;2022-10-17T20:18:09;41.10;;;27.10;;
40170;SDS011;37650;52.790;18.268;2022-10-17T20:21:30;37.40;;;25.60;;
40170;SDS011;37650;52.790;18.268;2022-10-17T20:24:54;36.20;;;25.20;;
40170;SDS011;37650;52.790;18.268;2022-10-17T20:28:15;35.70;;;23.80;;
40170;SDS011;37650;52.790;18.268;2022-10-17T20:31:35;34.50;;;24.20;;
40170;SDS011;37650;52.790;18.268;2022-10-17T20:34:55;33.60;;;24.00;;
40170;SDS011;37650;52.790;18.268;2022-10-17T20:38:16;29.40;;;24.20;;
40170;SDS011;37650;52.790;18.268;2022-10-17T20:41:37;25.20;;;21.70;;
40170;SDS011;37650;52.790;18.268;2022-10-17T20:44:57;27.70;;;22.60;;
40170;SDS011;37650;52.790;18.268;2022-10-17T20:48:18;23.40;;;18.40;;
40170;SDS011;37650;52.790;18.268;2022-10-17T20:51:38;28.40;;;21.50;;
40170;SDS011;37650;52.790;18.268;2022-10-17T20:55:02;28.80;;;24.80;;
40170;SDS011;37650;52.790;18.268;2022-10-17T20:58:22;24.50;;;21.90;;
40170;SDS011;37650;52.790;18.268;2022-10-17T21:01:43;28.40;;;22.40;;
40170;SDS011;37650;52.790;18.268;2022-10-17T21:08:25;27.50;;;22.80;;
40170;SDS011;37650;52.790;18.268;2022-10-17T21:11:46;27.70;;;22.50;;
40170;SDS011;37650;52.790;18.268;2022-10-17T21:15:10;26.40;;;21.20;;
40170;SDS011;37650;52.790;18.268;2022-10-17T21:18:30;23.70;;;20.60;;
40170;SDS011;37650;52.790;18.268;2022-10-17T21:21:50;28.00;;;22.20;;
40170;SDS011;37650;52.790;18.268;2022-10-17T21:25:10;27.00;;;23.30;;
40170;SDS011;37650;52.790;18.268;2022-10-17T21:28:30;24.80;;;22.10;;
40170;SDS011;37650;52.790;18.268;2022-10-17T21:31:52;27.30;;;22.40;;
40170;SDS011;37650;52.790;18.268;2022-10-17T21:35:12;24.70;;;21.30;;
40170;SDS011;37650;52.790;18.268;2022-10-17T21:38:34;27.30;;;23.70;;
40170;SDS011;37650;52.790;18.268;2022-10-17T21:41:56;32.00;;;25.50;;
40170;SDS011;37650;52.790;18.268;2022-10-17T21:45:16;31.40;;;23.90;;
40170;SDS011;37650;52.790;18.268;2022-10-17T21:48:36;26.30;;;23.20;;
40170;SDS011;37650;52.790;18.268;2022-10-17T21:51:57;24.70;;;21.60;;